createdAt,value
2018-08-25T00:00:19.136Z,97330.11
2018-08-25T00:00:50.724Z,97330.03
2018-08-25T00:01:22.313Z,97337.80
2018-08-25T00:01:53.900Z,97333.95
2018-08-25T00:02:25.488Z,97339.92
2018-08-25T00:02:57.089Z,97333.48
2018-08-25T00:03:28.666Z,97337.80
2018-08-25T00:04:00.252Z,97334.04
2018-08-25T00:04:31.859Z,97337.05
2018-08-25T00:05:03.465Z,97336.67
2018-08-25T00:05:35.052Z,97336.73
2018-08-25T00:06:06.644Z,97337.20
2018-08-25T00:06:38.237Z,97330.37
2018-08-25T00:07:09.846Z,97332.47
2018-08-25T00:07:41.426Z,97331.66
2018-08-25T00:08:13.012Z,97327.39
2018-08-25T00:08:44.599Z,97325.22
2018-08-25T00:09:16.188Z,97328.20
2018-08-25T00:09:47.812Z,97329.04
2018-08-25T00:10:19.470Z,97326.42
2018-08-25T00:10:51.113Z,97327.28
2018-08-25T00:11:22.705Z,97326.97
2018-08-25T00:11:54.306Z,97329.14
2018-08-25T00:12:25.900Z,97328.33
2018-08-25T00:12:57.501Z,97330.89
2018-08-25T00:13:29.106Z,97329.61
2018-08-25T00:14:00.701Z,97330.45
2018-08-25T00:14:32.296Z,97329.64
2018-08-25T00:15:03.874Z,97322.80
2018-08-25T00:15:35.508Z,97327.91
2018-08-25T00:16:07.155Z,97323.33
2018-08-25T00:16:38.743Z,97329.27
2018-08-25T00:17:10.341Z,97332.64
2018-08-25T00:17:41.933Z,97324.48
2018-08-25T00:18:13.534Z,97323.95
2018-08-25T00:18:45.124Z,97317.92
2018-08-25T00:19:16.726Z,97316.84
2018-08-25T00:19:48.318Z,97318.49
2018-08-25T00:20:19.910Z,97320.84
2018-08-25T00:20:51.555Z,97319.27
2018-08-25T00:21:23.157Z,97323.84
2018-08-25T00:21:54.764Z,97315.77
2018-08-25T00:22:26.359Z,97320.56
2018-08-25T00:22:57.953Z,97324.63
2018-08-25T00:23:29.534Z,97319.95
2018-08-25T00:24:01.114Z,97320.61
2018-08-25T00:24:32.718Z,97319.44
2018-08-25T00:25:04.383Z,97320.14
2018-08-25T00:25:35.962Z,97323.03
2018-08-25T00:26:07.549Z,97317.12
2018-08-25T00:26:39.140Z,97320.64
2018-08-25T00:27:10.748Z,97323.00
2018-08-25T00:27:42.340Z,97320.31
2018-08-25T00:28:13.922Z,97321.67
2018-08-25T00:28:45.512Z,97328.31
2018-08-25T00:29:17.114Z,97324.42
2018-08-25T00:29:48.718Z,97332.03
2018-08-25T00:30:20.360Z,97326.06
2018-08-25T00:30:51.948Z,97325.63
2018-08-25T00:31:23.527Z,97330.75
2018-08-25T00:31:55.130Z,97326.05
2018-08-25T00:32:26.711Z,97327.25
2018-08-25T00:32:58.299Z,97329.37
2018-08-25T00:33:29.884Z,97328.45
2018-08-25T00:34:01.506Z,97318.21
2018-08-25T00:34:33.120Z,97320.10
2018-08-25T00:35:04.694Z,97317.48
2018-08-25T00:35:36.321Z,97315.81
2018-08-25T00:36:07.922Z,97323.92
2018-08-25T00:36:39.516Z,97320.52
2018-08-25T00:37:11.120Z,97323.08
2018-08-25T00:37:42.722Z,97317.88
2018-08-25T00:38:14.308Z,97314.43
2018-08-25T00:38:45.899Z,97320.77
2018-08-25T00:39:17.487Z,97320.29
2018-08-25T00:39:49.116Z,97317.41
2018-08-25T00:40:20.719Z,97319.88
2018-08-25T00:40:52.304Z,97318.14
2018-08-25T00:41:23.905Z,97315.09
2018-08-25T00:41:55.492Z,97317.55
2018-08-25T00:42:27.085Z,97312.37
2018-08-25T00:42:58.747Z,97308.50
2018-08-25T00:43:30.326Z,97303.89
2018-08-25T00:44:01.930Z,97308.16
2018-08-25T00:44:33.530Z,97310.28
2018-08-25T00:45:05.138Z,97308.92
2018-08-25T00:45:36.727Z,97315.33
2018-08-25T00:46:08.326Z,97307.66
2018-08-25T00:46:39.934Z,97308.05
2018-08-25T00:47:11.545Z,97309.75
2018-08-25T00:47:43.185Z,97306.69
2018-08-25T00:48:14.811Z,97307.19
2018-08-25T00:48:46.414Z,97302.06
2018-08-25T00:49:18.022Z,97305.49
2018-08-25T00:49:49.616Z,97297.36
2018-08-25T00:50:21.248Z,97305.09
2018-08-25T00:50:52.826Z,97302.11
2018-08-25T00:51:24.434Z,97291.47
2018-08-25T00:51:56.043Z,97290.69
2018-08-25T00:52:27.636Z,97290.81
2018-08-25T00:52:59.231Z,97289.92
2018-08-25T00:53:30.806Z,97293.77
2018-08-25T00:54:02.386Z,97292.94
2018-08-25T00:54:33.994Z,97291.65
2018-08-25T00:55:05.590Z,97282.34
2018-08-25T00:55:37.183Z,97282.37
2018-08-25T00:56:08.776Z,97277.27
2018-08-25T00:56:40.360Z,97271.84
2018-08-25T00:57:11.940Z,97271.75
2018-08-25T00:57:43.545Z,97272.55
2018-08-25T00:58:15.132Z,97272.11
2018-08-25T00:58:46.760Z,97270.83
2018-08-25T00:59:18.375Z,97271.64
2018-08-25T00:59:49.998Z,97272.92
2018-08-25T01:00:21.589Z,97271.23
2018-08-25T01:00:53.167Z,97272.51
2018-08-25T01:01:24.773Z,97269.08
2018-08-25T01:01:56.369Z,97274.23
2018-08-25T01:02:27.964Z,97269.97
2018-08-25T01:02:59.552Z,97269.99
2018-08-25T01:03:31.162Z,97272.55
2018-08-25T01:04:02.809Z,97278.91
2018-08-25T01:04:34.396Z,97283.65
2018-08-25T01:05:05.984Z,97283.18
2018-08-25T01:05:37.582Z,97283.62
2018-08-25T01:06:09.172Z,97287.52
2018-08-25T01:06:40.780Z,97284.20
2018-08-25T01:07:12.362Z,97279.06
2018-08-25T01:07:43.960Z,97277.00
2018-08-25T01:08:15.534Z,97277.47
2018-08-25T01:08:47.154Z,97274.90
2018-08-25T01:09:18.755Z,97284.70
2018-08-25T01:09:50.362Z,97277.98
2018-08-25T01:10:21.951Z,97285.66
2018-08-25T01:10:53.549Z,97279.69
2018-08-25T01:11:25.144Z,97271.56
2018-08-25T01:11:56.758Z,97282.25
2018-08-25T01:12:28.363Z,97280.53
2018-08-25T01:12:59.966Z,97278.83
2018-08-25T01:13:31.572Z,97275.00
2018-08-25T01:14:03.190Z,97272.13
2018-08-25T01:14:34.798Z,97270.41
2018-08-25T01:15:06.405Z,97276.34
2018-08-25T01:15:38.061Z,97266.56
2018-08-25T01:16:09.627Z,97276.28
2018-08-25T01:16:41.250Z,97274.59
2018-08-25T01:17:12.850Z,97272.50
2018-08-25T01:17:44.450Z,97273.38
2018-08-25T01:18:16.036Z,97265.36
2018-08-25T01:18:47.633Z,97278.91
2018-08-25T01:19:19.220Z,97273.41
2018-08-25T01:19:50.802Z,97279.03
2018-08-25T01:20:22.398Z,97276.94
2018-08-25T01:20:53.983Z,97276.10
2018-08-25T01:21:25.568Z,97277.45
2018-08-25T01:21:57.158Z,97272.80
2018-08-25T01:22:28.737Z,97276.62
2018-08-25T01:23:00.325Z,97281.28
2018-08-25T01:23:31.919Z,97280.47
2018-08-25T01:24:03.508Z,97276.62
2018-08-25T01:24:35.096Z,97278.77
2018-08-25T01:25:06.687Z,97279.63
2018-08-25T01:25:38.339Z,97280.91
2018-08-25T01:26:09.937Z,97274.50
2018-08-25T01:26:41.532Z,97274.95
2018-08-25T01:27:13.124Z,97272.86
2018-08-25T01:27:44.712Z,97280.05
2018-08-25T01:28:16.313Z,97271.63
2018-08-25T01:28:47.904Z,97273.28
2018-08-25T01:29:19.489Z,97268.18
2018-08-25T01:29:51.070Z,97272.00
2018-08-25T01:30:22.656Z,97275.00
2018-08-25T01:30:54.258Z,97272.48
2018-08-25T01:31:25.848Z,97264.87
2018-08-25T01:31:57.451Z,97268.70
2018-08-25T01:32:29.057Z,97264.02
2018-08-25T01:33:00.661Z,97269.06
2018-08-25T01:33:32.266Z,97268.22
2018-08-25T01:34:03.859Z,97268.28
2018-08-25T01:34:35.462Z,97267.86
2018-08-25T01:35:07.070Z,97267.02
2018-08-25T01:35:38.718Z,97268.75
2018-08-25T01:36:10.321Z,97264.93
2018-08-25T01:36:41.944Z,97263.28
2018-08-25T01:37:13.540Z,97261.92
2018-08-25T01:37:45.147Z,97259.36
2018-08-25T01:38:16.736Z,97261.88
2018-08-25T01:38:48.324Z,97253.16
2018-08-25T01:39:19.927Z,97258.69
2018-08-25T01:39:51.517Z,97258.70
2018-08-25T01:40:23.165Z,97255.73
2018-08-25T01:40:54.770Z,97260.52
2018-08-25T01:41:26.375Z,97260.22
2018-08-25T01:41:57.959Z,97257.72
2018-08-25T01:42:29.549Z,97261.56
2018-08-25T01:43:01.154Z,97264.51
2018-08-25T01:43:32.745Z,97254.76
2018-08-25T01:44:04.342Z,97250.52
2018-08-25T01:44:35.946Z,97258.60
2018-08-25T01:45:07.550Z,97262.55
2018-08-25T01:45:39.154Z,97262.13
2018-08-25T01:46:10.740Z,97263.39
2018-08-25T01:46:42.328Z,97263.83
2018-08-25T01:47:13.931Z,97263.31
2018-08-25T01:47:45.519Z,97258.94
2018-08-25T01:48:17.126Z,97257.22
2018-08-25T01:48:48.716Z,97255.09
2018-08-25T01:49:20.324Z,97247.47
2018-08-25T01:49:51.943Z,97249.23
2018-08-25T01:50:23.544Z,97254.78
2018-08-25T01:50:55.183Z,97251.91
2018-08-25T01:51:26.772Z,97251.47
2018-08-25T01:51:58.360Z,97255.38
2018-08-25T01:52:29.942Z,97250.39
2018-08-25T01:53:01.522Z,97250.83
2018-08-25T01:53:33.098Z,97251.27
2018-08-25T01:54:04.692Z,97246.57
2018-08-25T01:54:36.270Z,97246.15
2018-08-25T01:55:07.860Z,97252.55
2018-08-25T01:55:39.448Z,97247.45
2018-08-25T01:56:11.075Z,97250.39
2018-08-25T01:56:42.664Z,97246.67
2018-08-25T01:57:14.270Z,97249.26
2018-08-25T01:57:45.890Z,97250.53
2018-08-25T01:58:17.480Z,97253.91
2018-08-25T01:58:49.073Z,97248.84
2018-08-25T01:59:20.671Z,97254.82
2018-08-25T01:59:52.273Z,97252.44
2018-08-25T02:00:23.864Z,97248.08
2018-08-25T02:00:55.466Z,97251.52
2018-08-25T02:01:27.092Z,97254.41
2018-08-25T02:01:58.671Z,97254.45
2018-08-25T02:02:30.270Z,97259.53
2018-08-25T02:03:01.900Z,97261.23
2018-08-25T02:03:33.493Z,97260.39
2018-08-25T02:04:05.098Z,97262.27
2018-08-25T02:04:36.696Z,97265.20
2018-08-25T02:05:08.285Z,97268.62
2018-08-25T02:05:39.869Z,97265.30
2018-08-25T02:06:11.450Z,97265.27
2018-08-25T02:06:43.098Z,97264.14
2018-08-25T02:07:14.688Z,97268.30
2018-08-25T02:07:46.287Z,97265.72
2018-08-25T02:08:17.880Z,97261.43
2018-08-25T02:08:49.486Z,97264.85
2018-08-25T02:09:21.076Z,97263.17
2018-08-25T02:09:52.664Z,97268.36
2018-08-25T02:10:24.266Z,97268.82
2018-08-25T02:10:55.860Z,97268.45
2018-08-25T02:11:27.453Z,97271.36
2018-08-25T02:11:59.045Z,97272.86
2018-08-25T02:12:30.635Z,97275.00
2018-08-25T02:13:02.238Z,97271.23
2018-08-25T02:13:33.864Z,97271.18
2018-08-25T02:14:05.446Z,97275.96
2018-08-25T02:14:37.053Z,97274.34
2018-08-25T02:15:08.658Z,97257.30
2018-08-25T02:15:40.253Z,97278.60
2018-08-25T02:16:11.884Z,97275.64
2018-08-25T02:16:43.481Z,97284.61
2018-08-25T02:17:15.088Z,97279.27
2018-08-25T02:17:46.667Z,97286.43
2018-08-25T02:18:18.449Z,97284.52
2018-08-25T02:18:50.039Z,97285.35
2018-08-25T02:19:21.615Z,97284.64
2018-08-25T02:19:53.222Z,97283.02
2018-08-25T02:20:24.849Z,97288.13
2018-08-25T02:20:56.431Z,97289.00
2018-08-25T02:21:28.052Z,97287.22
2018-08-25T02:21:59.640Z,97287.17
2018-08-25T02:22:31.232Z,97284.64
2018-08-25T02:23:02.838Z,97290.16
2018-08-25T02:23:34.414Z,97288.82
2018-08-25T02:24:06.014Z,97287.47
2018-08-25T02:24:37.635Z,97285.69
2018-08-25T02:25:09.239Z,97282.67
2018-08-25T02:25:40.832Z,97282.98
2018-08-25T02:26:12.425Z,97282.13
2018-08-25T02:26:44.048Z,97282.07
2018-08-25T02:27:15.635Z,97274.39
2018-08-25T02:27:47.229Z,97273.60
2018-08-25T02:28:18.910Z,97278.73
2018-08-25T02:28:50.480Z,97272.84
2018-08-25T02:29:22.111Z,97281.83
2018-08-25T02:29:53.700Z,97280.05
2018-08-25T02:30:25.310Z,97280.87
2018-08-25T02:30:56.903Z,97285.98
2018-08-25T02:31:28.492Z,97285.57
2018-08-25T02:32:00.146Z,97281.48
2018-08-25T02:32:31.736Z,97284.98
2018-08-25T02:33:03.339Z,97287.59
2018-08-25T02:33:34.929Z,97283.44
2018-08-25T02:34:06.535Z,97282.59
2018-08-25T02:34:38.142Z,97282.59
2018-08-25T02:35:09.750Z,97276.61
2018-08-25T02:35:41.344Z,97277.84
2018-08-25T02:36:12.932Z,97276.55
2018-08-25T02:36:44.521Z,97275.38
2018-08-25T02:37:16.181Z,97273.66
2018-08-25T02:37:47.780Z,97275.88
2018-08-25T02:38:19.382Z,97277.20
2018-08-25T02:38:51.083Z,97275.85
2018-08-25T02:39:22.584Z,97282.17
2018-08-25T02:39:54.176Z,97284.22
2018-08-25T02:40:25.784Z,97280.08
2018-08-25T02:40:57.372Z,97280.97
2018-08-25T02:41:28.952Z,97284.45
2018-08-25T02:42:00.533Z,97281.12
2018-08-25T02:42:32.117Z,97282.84
2018-08-25T02:43:03.703Z,97278.55
2018-08-25T02:43:35.288Z,97278.14
2018-08-25T02:44:06.862Z,97276.52
2018-08-25T02:44:38.440Z,97273.95
2018-08-25T02:45:10.028Z,97270.55
2018-08-25T02:45:41.620Z,97275.67
2018-08-25T02:46:13.222Z,97277.39
2018-08-25T02:46:44.856Z,97273.63
2018-08-25T02:47:16.460Z,97270.33
2018-08-25T02:47:48.066Z,97277.52
2018-08-25T02:48:19.674Z,97271.98
2018-08-25T02:48:51.264Z,97268.51
2018-08-25T02:49:22.865Z,97269.64
2018-08-25T02:49:54.463Z,97268.70
2018-08-25T02:50:26.048Z,97269.08
2018-08-25T02:50:57.649Z,97268.70
2018-08-25T02:51:29.249Z,97269.89
2018-08-25T02:52:00.896Z,97269.77
2018-08-25T02:52:32.487Z,97264.37
2018-08-25T02:53:04.086Z,97266.48
2018-08-25T02:53:35.691Z,97266.81
2018-08-25T02:54:07.296Z,97262.45
2018-08-25T02:54:38.874Z,97266.81
2018-08-25T02:55:10.464Z,97265.99
2018-08-25T02:55:42.066Z,97268.19
2018-08-25T02:56:13.656Z,97261.81
2018-08-25T02:56:45.274Z,97268.70
2018-08-25T02:57:16.860Z,97259.75
2018-08-25T02:57:48.467Z,97263.95
2018-08-25T02:58:20.056Z,97266.07
2018-08-25T02:58:51.661Z,97262.70
2018-08-25T02:59:23.252Z,97259.77
2018-08-25T02:59:54.844Z,97266.09
2018-08-25T03:00:26.474Z,97266.48
2018-08-25T03:00:58.094Z,97264.87
2018-08-25T03:01:29.699Z,97264.37
2018-08-25T03:02:01.383Z,97268.11
2018-08-25T03:02:32.948Z,97263.75
2018-08-25T03:03:04.542Z,97264.48
2018-08-25T03:03:36.146Z,97261.12
2018-08-25T03:04:07.755Z,97263.73
2018-08-25T03:04:39.352Z,97259.20
2018-08-25T03:05:11.002Z,97263.09
2018-08-25T03:05:42.588Z,97259.33
2018-08-25T03:06:14.194Z,97262.77
2018-08-25T03:06:45.820Z,97261.15
2018-08-25T03:07:17.415Z,97264.59
2018-08-25T03:07:49.022Z,97266.81
2018-08-25T03:08:20.616Z,97264.27
2018-08-25T03:08:52.218Z,97257.95
2018-08-25T03:09:23.821Z,97266.94
2018-08-25T03:09:55.412Z,97261.48
2018-08-25T03:10:26.991Z,97263.14
2018-08-25T03:10:58.626Z,97263.97
2018-08-25T03:11:30.295Z,97265.67
2018-08-25T03:12:01.880Z,97261.86
2018-08-25T03:12:33.481Z,97259.80
2018-08-25T03:13:05.064Z,97259.80
2018-08-25T03:13:36.687Z,97257.59
2018-08-25T03:14:08.281Z,97257.25
2018-08-25T03:14:39.858Z,97255.19
2018-08-25T03:15:11.435Z,97252.25
2018-08-25T03:15:43.025Z,97256.49
2018-08-25T03:16:14.614Z,97250.88
2018-08-25T03:16:46.256Z,97259.50
2018-08-25T03:17:17.849Z,97254.77
2018-08-25T03:17:49.446Z,97253.69
2018-08-25T03:18:21.046Z,97254.35
2018-08-25T03:18:52.650Z,97256.15
2018-08-25T03:19:24.245Z,97254.11
2018-08-25T03:19:55.832Z,97249.87
2018-08-25T03:20:27.423Z,97257.47
2018-08-25T03:20:59.054Z,97261.05
2018-08-25T03:21:30.699Z,97255.19
2018-08-25T03:22:02.346Z,97255.67
2018-08-25T03:22:33.930Z,97254.89
2018-08-25T03:23:05.525Z,97256.16
2018-08-25T03:23:37.117Z,97252.34
2018-08-25T03:24:08.718Z,97252.40
2018-08-25T03:24:40.322Z,97254.09
2018-08-25T03:25:11.916Z,97254.95
2018-08-25T03:25:43.530Z,97252.84
2018-08-25T03:26:15.133Z,97257.20
2018-08-25T03:26:46.733Z,97257.22
2018-08-25T03:27:18.338Z,97253.78
2018-08-25T03:27:50.016Z,97250.84
2018-08-25T03:28:21.604Z,97250.08
2018-08-25T03:28:53.183Z,97251.78
2018-08-25T03:29:24.779Z,97249.66
2018-08-25T03:29:56.373Z,97247.54
2018-08-25T03:30:27.979Z,97244.96
2018-08-25T03:30:59.572Z,97246.70
2018-08-25T03:31:31.169Z,97245.89
2018-08-25T03:32:02.760Z,97248.08
2018-08-25T03:32:34.348Z,97244.66
2018-08-25T03:33:06.010Z,97241.36
2018-08-25T03:33:37.604Z,97245.52
2018-08-25T03:34:09.193Z,97243.02
2018-08-25T03:34:40.780Z,97244.20
2018-08-25T03:35:12.370Z,97244.64
2018-08-25T03:35:43.959Z,97241.91
2018-08-25T03:36:15.539Z,97236.52
2018-08-25T03:36:47.114Z,97233.24
2018-08-25T03:37:18.706Z,97238.76
2018-08-25T03:37:50.282Z,97244.62
2018-08-25T03:38:21.918Z,97244.24
2018-08-25T03:38:53.508Z,97239.17
2018-08-25T03:39:25.110Z,97240.84
2018-08-25T03:39:56.702Z,97243.78
2018-08-25T03:40:28.288Z,97247.18
2018-08-25T03:40:59.881Z,97242.00
2018-08-25T03:41:31.494Z,97245.84
2018-08-25T03:42:03.084Z,97248.06
2018-08-25T03:42:34.666Z,97242.50
2018-08-25T03:43:06.337Z,97244.20
2018-08-25T03:43:37.933Z,97244.34
2018-08-25T03:44:09.534Z,97245.27
2018-08-25T03:44:41.124Z,97242.32
2018-08-25T03:45:12.721Z,97246.28
2018-08-25T03:45:44.313Z,97245.86
2018-08-25T03:46:15.892Z,97241.33
2018-08-25T03:46:47.470Z,97250.17
2018-08-25T03:47:19.056Z,97244.11
2018-08-25T03:47:50.659Z,97243.20
2018-08-25T03:48:22.284Z,97244.56
2018-08-25T03:48:53.872Z,97245.81
2018-08-25T03:49:25.464Z,97245.00
2018-08-25T03:49:57.071Z,97247.94
2018-08-25T03:50:28.674Z,97251.81
2018-08-25T03:51:00.266Z,97246.67
2018-08-25T03:51:31.866Z,97245.42
2018-08-25T03:52:03.474Z,97245.76
2018-08-25T03:52:35.064Z,97247.14
2018-08-25T03:53:06.692Z,97248.72
2018-08-25T03:53:38.297Z,97246.14
2018-08-25T03:54:09.887Z,97251.28
2018-08-25T03:54:41.476Z,97249.22
2018-08-25T03:55:13.125Z,97255.95
2018-08-25T03:55:44.701Z,97257.66
2018-08-25T03:56:16.338Z,97254.11
2018-08-25T03:56:47.942Z,97249.86
2018-08-25T03:57:19.582Z,97254.06
2018-08-25T03:57:51.195Z,97258.81
2018-08-25T03:58:22.792Z,97255.88
2018-08-25T03:58:54.390Z,97252.04
2018-08-25T03:59:25.994Z,97256.72
2018-08-25T03:59:57.594Z,97257.09
2018-08-25T04:00:29.184Z,97259.92
2018-08-25T04:01:00.772Z,97259.48
2018-08-25T04:01:32.419Z,97256.18
2018-08-25T04:02:03.986Z,97258.64
2018-08-25T04:02:35.617Z,97255.72
2018-08-25T04:03:07.208Z,97254.31
2018-08-25T04:03:38.836Z,97254.24
2018-08-25T04:04:10.438Z,97257.14
2018-08-25T04:04:42.023Z,97256.36
2018-08-25T04:05:13.612Z,97252.08
2018-08-25T04:05:45.223Z,97259.24
2018-08-25T04:06:16.829Z,97259.76
2018-08-25T04:06:48.419Z,97259.78
2018-08-25T04:07:20.012Z,97262.78
2018-08-25T04:07:51.602Z,97260.62
2018-08-25T04:08:23.196Z,97262.44
2018-08-25T04:08:54.830Z,97260.34
2018-08-25T04:09:26.434Z,97261.18
2018-08-25T04:09:58.073Z,97259.82
2018-08-25T04:10:29.640Z,97258.17
2018-08-25T04:11:01.259Z,97257.31
2018-08-25T04:11:32.856Z,97259.90
2018-08-25T04:12:04.452Z,97260.00
2018-08-25T04:12:36.071Z,97259.14
2018-08-25T04:13:07.647Z,97257.34
2018-08-25T04:13:39.255Z,97259.38
2018-08-25T04:14:10.865Z,97252.14
2018-08-25T04:14:42.450Z,97256.70
2018-08-25T04:15:14.054Z,97260.09
2018-08-25T04:15:45.658Z,97263.59
2018-08-25T04:16:17.294Z,97260.72
2018-08-25T04:16:48.885Z,97256.08
2018-08-25T04:17:20.462Z,97251.06
2018-08-25T04:17:52.052Z,97264.16
2018-08-25T04:18:23.645Z,97260.31
2018-08-25T04:18:55.240Z,97261.25
2018-08-25T04:19:26.832Z,97262.91
2018-08-25T04:19:58.472Z,97261.25
2018-08-25T04:20:30.061Z,97263.86
2018-08-25T04:21:01.649Z,97253.70
2018-08-25T04:21:33.272Z,97259.59
2018-08-25T04:22:04.923Z,97259.58
2018-08-25T04:22:36.488Z,97254.90
2018-08-25T04:23:08.095Z,97254.76
2018-08-25T04:23:39.698Z,97251.80
2018-08-25T04:24:11.306Z,97250.42
2018-08-25T04:24:42.914Z,97250.13
2018-08-25T04:25:14.556Z,97254.31
2018-08-25T04:25:46.144Z,97246.70
2018-08-25T04:26:17.746Z,97254.36
2018-08-25T04:26:49.335Z,97255.72
2018-08-25T04:27:20.920Z,97254.44
2018-08-25T04:27:52.527Z,97255.77
2018-08-25T04:28:24.106Z,97248.45
2018-08-25T04:28:55.704Z,97246.70
2018-08-25T04:29:27.314Z,97248.90
2018-08-25T04:29:58.950Z,97246.27
2018-08-25T04:30:30.575Z,97241.76
2018-08-25T04:31:02.191Z,97244.84
2018-08-25T04:31:33.794Z,97245.59
2018-08-25T04:32:05.384Z,97246.03
2018-08-25T04:32:36.972Z,97239.64
2018-08-25T04:33:08.578Z,97239.30
2018-08-25T04:33:40.168Z,97243.45
2018-08-25T04:34:11.752Z,97243.08
2018-08-25T04:34:43.344Z,97248.30
2018-08-25T04:35:14.976Z,97247.14
2018-08-25T04:35:46.565Z,97246.28
2018-08-25T04:36:18.152Z,97246.72
2018-08-25T04:36:49.731Z,97245.44
2018-08-25T04:37:21.353Z,97241.58
2018-08-25T04:37:52.954Z,97247.09
2018-08-25T04:38:24.534Z,97250.00
2018-08-25T04:38:56.120Z,97245.81
2018-08-25T04:39:27.709Z,97247.09
2018-08-25T04:39:59.299Z,97243.70
2018-08-25T04:40:30.905Z,97247.56
2018-08-25T04:41:02.514Z,97248.41
2018-08-25T04:41:34.113Z,97245.44
2018-08-25T04:42:05.704Z,97245.84
2018-08-25T04:42:37.328Z,97247.98
2018-08-25T04:43:08.917Z,97245.86
2018-08-25T04:43:40.508Z,97244.56
2018-08-25T04:44:12.100Z,97245.95
2018-08-25T04:44:43.688Z,97243.72
2018-08-25T04:45:15.290Z,97244.09
2018-08-25T04:45:46.894Z,97242.02
2018-08-25T04:46:18.498Z,97245.91
2018-08-25T04:46:50.110Z,97242.52
2018-08-25T04:47:21.740Z,97249.77
2018-08-25T04:47:53.342Z,97246.77
2018-08-25T04:48:24.936Z,97246.28
2018-08-25T04:48:56.524Z,97246.33
2018-08-25T04:49:28.156Z,97243.77
2018-08-25T04:49:59.730Z,97248.08
2018-08-25T04:50:31.334Z,97244.23
2018-08-25T04:51:02.913Z,97241.75
2018-08-25T04:51:34.514Z,97245.21
2018-08-25T04:52:06.104Z,97248.22
2018-08-25T04:52:37.711Z,97243.61
2018-08-25T04:53:09.305Z,97248.73
2018-08-25T04:53:40.903Z,97242.35
2018-08-25T04:54:12.526Z,97243.78
2018-08-25T04:54:44.186Z,97243.73
2018-08-25T04:55:15.786Z,97247.47
2018-08-25T04:55:47.379Z,97241.59
2018-08-25T04:56:18.982Z,97241.87
2018-08-25T04:56:50.585Z,97244.01
2018-08-25T04:57:22.162Z,97251.63
2018-08-25T04:57:53.762Z,97252.91
2018-08-25T04:58:25.352Z,97251.61
2018-08-25T04:58:56.954Z,97249.87
2018-08-25T04:59:28.558Z,97246.81
2018-08-25T05:00:00.188Z,97253.59
2018-08-25T05:00:31.794Z,97219.81
2018-08-25T05:01:03.400Z,97260.26
2018-08-25T05:01:35.006Z,97258.61
2018-08-25T05:02:06.596Z,97258.63
2018-08-25T05:02:38.184Z,97255.66
2018-08-25T05:03:09.806Z,97259.05
2018-08-25T05:03:41.399Z,97257.01
2018-08-25T05:04:12.985Z,97258.33
2018-08-25T05:04:44.576Z,97254.93
2018-08-25T05:05:16.196Z,97254.17
2018-08-25T05:05:47.802Z,97253.80
2018-08-25T05:06:19.399Z,97253.80
2018-08-25T05:06:51.000Z,97252.47
2018-08-25T05:07:22.590Z,97256.31
2018-08-25T05:07:54.183Z,97258.01
2018-08-25T05:08:25.788Z,97247.87
2018-08-25T05:08:57.385Z,97259.31
2018-08-25T05:09:29.010Z,97258.13
2018-08-25T05:10:00.615Z,97253.87
2018-08-25T05:10:32.270Z,97255.15
2018-08-25T05:11:03.861Z,97252.24
2018-08-25T05:11:35.453Z,97249.27
2018-08-25T05:12:07.054Z,97246.70
2018-08-25T05:12:38.650Z,97253.08
2018-08-25T05:13:10.227Z,97250.24
2018-08-25T05:13:41.802Z,97248.10
2018-08-25T05:14:13.392Z,97247.27
2018-08-25T05:14:45.047Z,97249.78
2018-08-25T05:15:16.654Z,97242.13
2018-08-25T05:15:48.262Z,97245.98
2018-08-25T05:16:19.852Z,97247.69
2018-08-25T05:16:51.440Z,97245.52
2018-08-25T05:17:23.043Z,97248.50
2018-08-25T05:17:54.636Z,97248.84
2018-08-25T05:18:26.233Z,97246.73
2018-08-25T05:18:57.825Z,97248.83
2018-08-25T05:19:29.460Z,97252.97
2018-08-25T05:20:01.063Z,97252.59
2018-08-25T05:20:32.687Z,97251.38
2018-08-25T05:21:04.294Z,97250.92
2018-08-25T05:21:35.919Z,97252.97
2018-08-25T05:22:07.535Z,97250.01
2018-08-25T05:22:39.124Z,97248.75
2018-08-25T05:23:10.742Z,97246.27
2018-08-25T05:23:42.341Z,97247.13
2018-08-25T05:24:13.933Z,97249.27
2018-08-25T05:24:45.543Z,97242.45
2018-08-25T05:25:17.150Z,97248.01
2018-08-25T05:25:48.750Z,97247.52
2018-08-25T05:26:20.348Z,97252.66
2018-08-25T05:26:51.990Z,97249.17
2018-08-25T05:27:23.629Z,97246.61
2018-08-25T05:27:55.206Z,97253.01
2018-08-25T05:28:26.800Z,97246.17
2018-08-25T05:28:58.378Z,97246.59
2018-08-25T05:29:29.991Z,97244.89
2018-08-25T05:30:01.599Z,97249.64
2018-08-25T05:30:33.193Z,97247.14
2018-08-25T05:31:04.780Z,97244.24
2018-08-25T05:31:36.383Z,97246.78
2018-08-25T05:32:07.977Z,97249.76
2018-08-25T05:32:39.604Z,97242.11
2018-08-25T05:33:11.191Z,97247.55
2018-08-25T05:33:42.784Z,97246.27
2018-08-25T05:34:14.363Z,97243.14
2018-08-25T05:34:45.944Z,97241.40
2018-08-25T05:35:17.549Z,97243.56
2018-08-25T05:35:49.136Z,97241.37
2018-08-25T05:36:20.745Z,97244.23
2018-08-25T05:36:52.390Z,97239.09
2018-08-25T05:37:23.995Z,97239.52
2018-08-25T05:37:55.639Z,97240.80
2018-08-25T05:38:27.228Z,97238.80
2018-08-25T05:38:58.831Z,97240.47
2018-08-25T05:39:30.429Z,97239.63
2018-08-25T05:40:02.038Z,97240.94
2018-08-25T05:40:33.635Z,97241.81
2018-08-25T05:41:05.223Z,97244.70
2018-08-25T05:41:36.812Z,97243.03
2018-08-25T05:42:08.400Z,97245.09
2018-08-25T05:42:40.023Z,97243.80
2018-08-25T05:43:11.609Z,97237.39
2018-08-25T05:43:43.214Z,97242.44
2018-08-25T05:44:14.826Z,97240.73
2018-08-25T05:44:46.422Z,97239.09
2018-08-25T05:45:18.032Z,97246.03
2018-08-25T05:45:49.628Z,97240.69
2018-08-25T05:46:21.221Z,97235.61
2018-08-25T05:46:52.830Z,97236.45
2018-08-25T05:47:24.430Z,97234.73
2018-08-25T05:47:56.046Z,97236.89
2018-08-25T05:48:27.636Z,97240.29
2018-08-25T05:48:59.247Z,97230.45
2018-08-25T05:49:30.849Z,97232.09
2018-08-25T05:50:02.451Z,97239.75
2018-08-25T05:50:34.049Z,97220.92
2018-08-25T05:51:05.626Z,97234.00
2018-08-25T05:51:37.232Z,97237.42
2018-08-25T05:52:08.824Z,97240.30
2018-08-25T05:52:40.452Z,97235.18
2018-08-25T05:53:12.044Z,97234.32
2018-08-25T05:53:43.680Z,97234.25
2018-08-25T05:54:15.261Z,97239.32
2018-08-25T05:54:46.838Z,97239.34
2018-08-25T05:55:18.438Z,97239.86
2018-08-25T05:55:50.027Z,97242.73
2018-08-25T05:56:21.620Z,97245.70
2018-08-25T05:56:53.222Z,97247.91
2018-08-25T05:57:24.816Z,97236.66
2018-08-25T05:57:56.395Z,97244.30
2018-08-25T05:58:27.984Z,97249.47
2018-08-25T05:58:59.611Z,97245.52
2018-08-25T05:59:31.215Z,97244.31
2018-08-25T06:00:02.808Z,97254.16
2018-08-25T06:00:34.401Z,97248.16
2018-08-25T06:01:06.002Z,97247.77
2018-08-25T06:01:37.597Z,97253.41
2018-08-25T06:02:09.188Z,97250.61
2018-08-25T06:02:40.776Z,97247.52
2018-08-25T06:03:12.378Z,97247.99
2018-08-25T06:03:44.037Z,97245.94
2018-08-25T06:04:15.678Z,97246.78
2018-08-25T06:04:47.266Z,97250.73
2018-08-25T06:05:18.856Z,97245.91
2018-08-25T06:05:50.444Z,97248.38
2018-08-25T06:06:22.058Z,97246.23
2018-08-25T06:06:53.676Z,97250.95
2018-08-25T06:07:25.278Z,97256.20
2018-08-25T06:07:56.882Z,97248.30
2018-08-25T06:08:28.477Z,97254.06
2018-08-25T06:09:00.118Z,97251.36
2018-08-25T06:09:31.699Z,97251.28
2018-08-25T06:10:03.292Z,97251.28
2018-08-25T06:10:34.898Z,97253.42
2018-08-25T06:11:06.488Z,97254.69